Portada
METAR-TAF:

METAR-TAF

Aeroports :

Ahwaz, Iran

latitud: 31-20N, longitud: 048-40E, altitud: 20 m

Observació

L'informe es va fer fa 27 minuts, a les 11:00 UTC
Vent 8 kt del Oest/Nord-Oest
Temperatura 46°C
Humitat 8%
Pressió 999 hPa
Visibilitat 10 km o més
sense núvols per sota de 1500 mi sense presència de cumulonimbus.

METAR: OIAW 291100Z 30008KT CAVOK 46/04 Q0999

Hora: 15:57 (11:27 UTC)

Pronòstic

L'informe es va fer fa 5 hores i 57 minuts, a les 05:30 UTC
Pronòstic vàlid del 29 a les 06 UTC al 30 a les 12 UTC
Vent 7 kt del Nord-Oest
Visibilitat: 7000 m
Temporalment
l' 29 a les 07 UTC al 29 a les 15 UTC
Vent 15 kt del Nord-Oest

TAF: OIAW 290530Z 2906/3012 31007KT 7000 NSC TEMPO 2907/2915 31015KT

Observacions i pronòstics meteorològics de més de 4000 aeroports (METAR i TAF).

Les estacions disponibles són els punts grocs i vermells al mapa.

Posi el ratolí al punt desitjat per veure el nom de l'estació.

Feu clic per veure les observacions i els pronòstics meteorològics.

Per canviar el mapa: feu clic els botons verds amb una creu de color negre per apropar; al botó verd amb un guió per allunyar la imatge; o en les fletxes verdes per a mapes adjacents.


METAR-TAF: